Time;durP1;ratioP1;P1;durP2;ratioP2;P2;SDS_P1;SDS_P2;PMS_P1;PMS_P2;Temp;Humidity;BMP_temperature;BMP_pressure;BME280_temperature;BME280_humidity;BME280_pressure;Samples;Min_cycle;Max_cycle;Signal;HPM_P1;HPM_P2
2021/05/12 00:01:19;;;;;;;1.90;1.80;;;25.30;41.60;;;;;;5043999;28;20392;-60
2021/05/12 00:03:46;;;;;;;2.33;2.10;;;25.30;41.60;;;;;;5038058;28;20553;-59
2021/05/12 00:06:13;;;;;;;1.77;1.67;;;25.30;41.60;;;;;;5040453;28;20088;-59
2021/05/12 00:08:40;;;;;;;1.90;1.80;;;25.30;41.60;;;;;;5040531;28;20123;-59
2021/05/12 00:11:07;;;;;;;2.10;2.00;;;25.30;41.60;;;;;;5041710;28;20325;-61
2021/05/12 00:13:35;;;;;;;2.00;1.90;;;25.30;41.60;;;;;;5038793;28;20210;-60
2021/05/12 00:16:02;;;;;;;2.38;1.90;;;25.30;42.10;;;;;;5037781;28;20045;-60
2021/05/12 00:18:36;;;;;;;2.72;2.25;;;25.30;41.60;;;;;;5042151;28;20417;-60
2021/05/12 00:21:06;;;;;;;1.80;1.70;;;25.30;41.60;;;;;;5044015;28;20157;-60
2021/05/12 00:23:48;;;;;;;2.60;2.40;;;25.30;41.90;;;;;;5040794;28;20418;-59
2021/05/12 00:26:15;;;;;;;1.80;1.60;;;25.30;41.60;;;;;;5036659;28;20052;-59
2021/05/12 00:28:43;;;;;;;2.47;1.90;;;25.30;41.60;;;;;;5037139;28;20069;-60
2021/05/12 00:31:10;;;;;;;2.90;2.60;;;25.30;41.60;;;;;;5037531;28;20138;-60
2021/05/12 00:33:37;;;;;;;2.53;2.00;;;25.30;41.60;;;;;;5035216;28;20142;-60
2021/05/12 00:36:05;;;;;;;2.10;2.00;;;25.30;41.60;;;;;;5039826;28;20360;-59
2021/05/12 00:38:32;;;;;;;1.90;1.80;;;25.30;41.60;;;;;;5038599;28;20080;-60
2021/05/12 00:40:59;;;;;;;2.45;1.80;;;25.30;41.60;;;;;;5039056;28;20143;-60
2021/05/12 00:43:26;;;;;;;2.97;2.38;;;25.30;41.60;;;;;;5040282;28;20080;-59
2021/05/12 00:45:53;;;;;;;2.90;2.42;;;25.30;41.60;;;;;;5043443;28;20513;-59
2021/05/12 00:48:21;;;;;;;2.28;1.90;;;25.30;41.60;;;;;;5044125;28;20044;-60
2021/05/12 00:50:48;;;;;;;2.65;2.10;;;25.30;41.60;;;;;;5043899;28;20665;-60
2021/05/12 00:53:15;;;;;;;2.47;2.28;;;25.20;41.50;;;;;;5044170;28;20055;-62
2021/05/12 00:55:42;;;;;;;2.35;2.15;;;25.20;41.50;;;;;;5043733;28;20124;-60
2021/05/12 00:58:09;;;;;;;2.40;2.20;;;25.20;41.50;;;;;;5043930;28;20095;-60
2021/05/12 01:00:37;;;;;;;2.00;1.90;;;25.20;41.50;;;;;;5043606;28;20401;-59
2021/05/12 01:03:05;;;;;;;2.17;2.00;;;25.20;41.50;;;;;;5041474;28;20072;-59
2021/05/12 01:05:59;;;;;;;2.38;2.17;;;25.20;41.50;;;;;;5038970;28;20080;-59
2021/05/12 01:08:28;;;;;;;2.30;2.10;;;25.20;41.50;;;;;;5038954;28;20061;-59
2021/05/12 01:10:56;;;;;;;2.08;1.95;;;25.20;41.50;;;;;;5041010;28;20120;-59
2021/05/12 01:13:25;;;;;;;2.17;1.83;;;25.20;41.50;;;;;;5043631;28;20057;-59
2021/05/12 01:15:52;;;;;;;1.95;1.85;;;25.20;41.50;;;;;;5042708;28;20080;-58
2021/05/12 01:18:21;;;;;;;2.05;1.85;;;25.20;41.50;;;;;;5044054;28;20517;-59
2021/05/12 01:20:55;;;;;;;2.05;1.88;;;25.20;41.50;;;;;;5043107;28;20053;-59
2021/05/12 01:23:26;;;;;;;2.40;2.20;;;25.20;41.50;;;;;;5043485;28;20044;-59
2021/05/12 01:25:55;;;;;;;2.00;1.90;;;25.20;41.50;;;;;;5043275;28;20106;-60
2021/05/12 01:28:24;;;;;;;2.65;2.15;;;25.20;41.50;;;;;;5043885;28;20387;-61
2021/05/12 01:31:01;;;;;;;2.33;2.13;;;25.20;41.40;;;;;;5043544;28;20053;-60
2021/05/12 01:33:28;;;;;;;2.40;2.00;;;25.20;41.40;;;;;;5043837;28;20080;-60
2021/05/12 01:35:57;;;;;;;2.22;2.03;;;25.20;41.40;;;;;;5043336;28;20405;-60
2021/05/12 01:38:25;;;;;;;2.10;2.00;;;25.20;41.50;;;;;;5043406;28;20052;-59
2021/05/12 01:40:54;;;;;;;2.85;2.40;;;25.20;41.50;;;;;;5043142;28;20343;-59
2021/05/12 01:43:22;;;;;;;1.85;1.75;;;25.20;41.40;;;;;;5044341;28;20060;-59
2021/05/12 01:45:50;;;;;;;3.65;1.98;;;25.20;42.00;;;;;;5046461;28;20049;-60
2021/05/12 01:48:18;;;;;;;2.13;1.92;;;25.20;41.50;;;;;;5046935;28;20143;-60
2021/05/12 01:50:45;;;;;;;2.20;1.83;;;25.20;41.40;;;;;;5046744;28;20049;-60
2021/05/12 01:53:14;;;;;;;3.22;2.17;;;25.20;41.40;;;;;;5046896;28;20160;-60
2021/05/12 01:55:46;;;;;;;1.95;1.75;;;25.20;41.40;;;;;;5046990;28;20103;-60
2021/05/12 01:58:14;;;;;;;1.80;1.70;;;25.20;41.50;;;;;;5046439;28;20053;-59
2021/05/12 02:00:43;;;;;;;1.80;1.70;;;25.20;41.50;;;;;;5046376;28;20081;-59
2021/05/12 02:03:11;;;;;;;5.20;1.65;;;25.20;41.40;;;;;;5046468;28;20053;-59
2021/05/12 02:05:41;;;;;;;2.40;2.00;;;25.10;41.40;;;;;;5046518;28;20047;-60
2021/05/12 02:08:11;;;;;;;2.30;2.10;;;25.20;41.40;;;;;;5046518;28;20049;-61
2021/05/12 02:10:45;;;;;;;2.65;2.00;;;25.20;41.40;;;;;;5046430;28;20128;-60
2021/05/12 02:13:13;;;;;;;2.20;1.60;;;25.20;41.40;;;;;;5046372;28;20084;-60
2021/05/12 02:15:42;;;;;;;2.20;2.00;;;25.20;41.40;;;;;;5045952;28;20060;-60
2021/05/12 02:18:13;;;;;;;2.60;1.83;;;25.20;41.40;;;;;;5046783;28;20136;-59
2021/05/12 02:20:40;;;;;;;2.28;2.08;;;25.20;41.40;;;;;;5046190;28;20573;-59
2021/05/12 02:23:10;;;;;;;2.40;1.80;;;25.20;41.40;;;;;;5061715;28;20466;-59
2021/05/12 02:25:38;;;;;;;1.85;1.75;;;25.20;41.40;;;;;;5046385;28;20714;-59
2021/05/12 02:28:06;;;;;;;1.83;1.70;;;25.20;41.40;;;;;;5045936;28;20550;-59
2021/05/12 02:30:35;;;;;;;2.05;1.92;;;25.20;41.40;;;;;;5045978;28;20597;-59
2021/05/12 02:33:02;;;;;;;2.10;2.00;;;25.20;41.40;;;;;;5046293;28;20135;-58
2021/05/12 02:35:29;;;;;;;2.25;2.00;;;25.20;41.40;;;;;;5045985;28;20072;-58
2021/05/12 02:38:00;;;;;;;1.92;1.83;;;25.20;41.40;;;;;;5046182;28;20605;-59
2021/05/12 02:40:27;;;;;;;1.92;1.80;;;25.20;41.40;;;;;;5045475;28;20088;-59
2021/05/12 02:42:56;;;;;;;1.75;1.65;;;25.20;41.40;;;;;;5045821;28;20052;-59
2021/05/12 02:45:23;;;;;;;2.15;1.95;;;25.10;41.40;;;;;;5045728;28;20123;-59
2021/05/12 02:48:00;;;;;;;1.70;1.60;;;25.20;41.40;;;;;;5045985;28;20119;-58
2021/05/12 02:50:31;;;;;;;1.95;1.77;;;25.10;41.40;;;;;;5045359;28;20053;-58
2021/05/12 02:52:59;;;;;;;1.60;1.50;;;25.10;41.40;;;;;;5045540;28;20080;-58
2021/05/12 02:55:27;;;;;;;1.73;1.63;;;25.20;41.40;;;;;;5044684;28;20576;-59
2021/05/12 02:57:56;;;;;;;2.10;1.83;;;25.10;41.40;;;;;;5045162;28;20084;-59
2021/05/12 03:00:26;;;;;;;1.63;1.52;;;25.10;41.40;;;;;;5045211;28;20080;-59
2021/05/12 03:02:54;;;;;;;1.85;1.75;;;25.20;41.40;;;;;;5039688;28;20045;-58
2021/05/12 03:05:21;;;;;;;1.90;1.80;;;25.10;41.30;;;;;;5037055;28;20314;-59
2021/05/12 03:07:48;;;;;;;2.33;2.13;;;25.10;41.30;;;;;;5041003;28;20102;-60
2021/05/12 03:10:19;;;;;;;1.88;1.75;;;25.10;41.40;;;;;;5038818;28;20154;-59
2021/05/12 03:12:46;;;;;;;1.67;1.52;;;25.10;41.40;;;;;;5043074;28;20055;-60
2021/05/12 03:15:17;;;;;;;1.90;1.75;;;25.10;41.90;;;;;;5043227;28;20049;-59
2021/05/12 03:17:55;;;;;;;1.90;1.80;;;25.10;41.40;;;;;;5038321;28;20045;-59
2021/05/12 03:20:26;;;;;;;1.70;1.60;;;25.10;41.40;;;;;;5039150;28;20068;-59
2021/05/12 03:22:53;;;;;;;1.67;1.58;;;25.10;41.30;;;;;;5038608;28;20430;-59
2021/05/12 03:25:22;;;;;;;2.17;1.98;;;25.10;41.40;;;;;;5040697;28;20135;-59
2021/05/12 03:27:50;;;;;;;1.75;1.65;;;25.10;41.40;;;;;;5037699;28;20145;-60
2021/05/12 03:30:21;;;;;;;1.92;1.70;;;25.10;41.30;;;;;;5038605;28;20433;-60
2021/05/12 03:32:49;;;;;;;2.25;2.08;;;25.10;41.40;;;;;;5041350;28;20594;-60
2021/05/12 03:35:17;;;;;;;2.10;1.90;;;25.10;41.30;;;;;;5037634;28;20048;-59
2021/05/12 03:37:45;;;;;;;2.03;1.73;;;25.10;41.40;;;;;;5039197;28;20068;-59
2021/05/12 03:40:13;;;;;;;1.95;1.80;;;25.10;41.30;;;;;;5039131;28;20049;-59
2021/05/12 03:42:40;;;;;;;1.80;1.70;;;25.10;41.30;;;;;;5044884;28;20375;-59
2021/05/12 03:45:09;;;;;;;3.08;1.70;;;25.10;41.30;;;;;;5044967;28;20045;-59
2021/05/12 03:47:36;;;;;;;2.40;2.00;;;25.10;41.30;;;;;;5044028;28;20095;-60
2021/05/12 03:50:06;;;;;;;1.92;1.77;;;25.10;41.30;;;;;;5045455;28;20125;-60
2021/05/12 03:52:33;;;;;;;2.38;1.88;;;25.10;41.20;;;;;;5044213;28;20067;-61
2021/05/12 03:55:01;;;;;;;1.55;1.45;;;25.20;41.30;;;;;;5044872;28;20132;-62
2021/05/12 03:57:28;;;;;;;1.90;1.75;;;25.20;41.30;;;;;;5046500;28;20045;-62
2021/05/12 03:59:55;;;;;;;2.00;1.90;;;25.10;41.20;;;;;;5044573;28;20080;-60
2021/05/12 04:02:22;;;;;;;1.95;1.85;;;25.20;41.30;;;;;;5040133;28;20129;-60
2021/05/12 04:04:53;;;;;;;1.73;1.63;;;25.20;41.30;;;;;;5037289;28;20048;-60
2021/05/12 04:07:20;;;;;;;1.83;1.67;;;25.20;41.30;;;;;;5038666;28;20076;-60
2021/05/12 04:09:48;;;;;;;2.15;1.95;;;25.10;41.20;;;;;;5038219;28;20147;-60
2021/05/12 04:12:15;;;;;;;1.73;1.63;;;25.20;41.20;;;;;;5039883;28;20131;-59
2021/05/12 04:14:42;;;;;;;2.10;1.90;;;25.20;41.20;;;;;;5037891;28;20084;-59
2021/05/12 04:17:09;;;;;;;1.50;1.40;;;25.20;41.30;;;;;;5043970;28;20532;-59
2021/05/12 04:19:36;;;;;;;1.90;1.80;;;25.20;41.20;;;;;;5044252;28;20044;-60
2021/05/12 04:22:04;;;;;;;1.88;1.77;;;25.30;41.20;;;;;;5035087;28;20124;-60
2021/05/12 04:24:32;;;;;;;2.15;1.98;;;25.30;41.10;;;;;;5035363;28;20048;-59
2021/05/12 04:26:59;;;;;;;1.85;1.75;;;25.30;41.10;;;;;;5028245;28;20399;-60
2021/05/12 04:29:26;;;;;;;1.55;1.45;;;25.30;41.10;;;;;;5023832;28;20045;-60
2021/05/12 04:31:53;;;;;;;1.80;1.70;;;25.40;41.10;;;;;;5024516;28;20399;-60
2021/05/12 04:34:20;;;;;;;1.92;1.83;;;25.40;41.00;;;;;;5023715;28;20514;-59
2021/05/12 04:36:47;;;;;;;2.20;2.00;;;25.40;41.00;;;;;;5037530;28;20136;-59
2021/05/12 04:39:15;;;;;;;1.85;1.70;;;25.40;41.00;;;;;;5034738;28;20049;-59
2021/05/12 04:41:42;;;;;;;1.48;1.38;;;25.40;40.90;;;;;;5026252;28;20133;-59
2021/05/12 04:44:11;;;;;;;1.83;1.73;;;25.40;40.90;;;;;;5031256;28;20070;-60
2021/05/12 04:46:39;;;;;;;1.73;1.60;;;25.40;40.90;;;;;;5043418;28;20141;-60
2021/05/12 04:49:07;;;;;;;1.83;1.73;;;25.40;40.90;;;;;;5043375;28;20049;-59
2021/05/12 04:51:35;;;;;;;1.60;1.50;;;25.50;40.90;;;;;;5043319;28;20080;-59
2021/05/12 04:54:05;;;;;;;1.67;1.58;;;25.50;40.90;;;;;;5038191;28;20048;-59
2021/05/12 04:56:33;;;;;;;2.05;1.40;;;25.50;40.80;;;;;;5037718;28;20537;-60
2021/05/12 04:59:00;;;;;;;2.03;1.60;;;25.50;40.80;;;;;;5035019;28;20044;-60
2021/05/12 05:01:29;;;;;;;3.95;2.10;;;25.50;40.80;;;;;;5034131;28;20037;-60
2021/05/12 05:03:58;;;;;;;1.95;1.60;;;25.50;40.80;;;;;;5034649;28;20049;-60
2021/05/12 05:06:25;;;;;;;1.70;1.60;;;25.60;40.80;;;;;;5037763;28;20087;-60
2021/05/12 05:08:53;;;;;;;2.00;1.85;;;25.60;40.70;;;;;;5038242;28;20136;-59
2021/05/12 05:11:20;;;;;;;2.08;1.90;;;25.60;40.60;;;;;;5035169;28;20502;-59
2021/05/12 05:13:47;;;;;;;2.78;2.10;;;25.70;40.60;;;;;;5032577;28;20090;-59
2021/05/12 05:16:14;;;;;;;2.05;1.95;;;25.70;40.60;;;;;;5031885;28;20124;-59
2021/05/12 05:18:42;;;;;;;2.33;1.85;;;25.70;40.60;;;;;;5032717;28;20089;-58
2021/05/12 05:21:10;;;;;;;1.50;1.40;;;25.70;40.50;;;;;;5034468;28;20128;-60
2021/05/12 05:23:38;;;;;;;2.00;1.85;;;25.70;40.50;;;;;;5030292;28;20124;-60
2021/05/12 05:26:05;;;;;;;2.28;1.90;;;25.80;40.50;;;;;;5034279;28;20037;-59
2021/05/12 05:28:32;;;;;;;1.88;1.77;;;25.80;40.60;;;;;;5034781;28;20449;-61
2021/05/12 05:31:00;;;;;;;3.30;1.85;;;25.80;40.50;;;;;;5044540;28;20099;-61
2021/05/12 05:33:27;;;;;;;2.63;1.85;;;25.80;40.50;;;;;;5031921;28;20132;-60
2021/05/12 05:35:54;;;;;;;1.83;1.73;;;25.90;40.50;;;;;;5036078;28;20053;-59
2021/05/12 05:38:21;;;;;;;1.73;1.63;;;25.90;40.40;;;;;;5035722;28;20103;-59
2021/05/12 05:40:48;;;;;;;5.38;2.38;;;26.00;40.30;;;;;;5033198;28;20036;-58
2021/05/12 05:43:16;;;;;;;3.13;2.28;;;26.00;40.30;;;;;;5038858;28;20080;-59
2021/05/12 05:45:43;;;;;;;3.92;2.53;;;26.00;40.20;;;;;;5036193;28;20484;-59
2021/05/12 05:48:11;;;;;;;2.72;2.22;;;26.00;40.10;;;;;;5033124;28;20081;-60
2021/05/12 05:50:38;;;;;;;2.78;2.55;;;26.10;40.20;;;;;;5030290;28;20048;-60
2021/05/12 05:53:05;;;;;;;6.18;2.97;;;26.10;40.20;;;;;;5034122;28;20041;-59
2021/05/12 05:55:32;;;;;;;5.28;2.63;;;26.10;40.10;;;;;;5032292;28;20132;-59
2021/05/12 05:58:00;;;;;;;3.33;2.40;;;26.10;40.00;;;;;;5033868;28;20089;-59
2021/05/12 06:00:27;;;;;;;5.40;2.28;;;26.10;40.00;;;;;;5034183;28;20041;-60
2021/05/12 06:02:54;;;;;;;11.18;2.75;;;26.20;40.00;;;;;;5034167;28;20356;-60
2021/05/12 06:05:22;;;;;;;7.15;2.03;;;26.20;40.00;;;;;;5033465;28;20170;-60
2021/05/12 06:07:49;;;;;;;4.32;2.50;;;26.30;40.00;;;;;;5033540;28;20132;-62
2021/05/12 06:10:16;;;;;;;3.97;2.50;;;26.20;39.90;;;;;;5032846;28;20045;-61
2021/05/12 06:12:46;;;;;;;3.90;2.55;;;26.30;40.00;;;;;;5044146;28;20045;-61
2021/05/12 06:15:18;;;;;;;5.63;3.15;;;26.30;39.90;;;;;;5047793;28;20053;-61
2021/05/12 06:17:50;;;;;;;5.38;2.40;;;26.30;40.00;;;;;;5033177;28;20049;-60
2021/05/12 06:20:18;;;;;;;5.55;2.40;;;26.30;40.00;;;;;;5031597;28;20057;-60
2021/05/12 06:22:45;;;;;;;5.07;2.67;;;26.30;40.00;;;;;;5050228;28;20102;-60
2021/05/12 06:25:13;;;;;;;6.65;2.92;;;26.30;40.00;;;;;;5011322;28;20138;-59
2021/05/12 06:27:41;;;;;;;3.83;2.03;;;26.30;39.90;;;;;;5037272;28;20045;-60
2021/05/12 06:30:09;;;;;;;3.47;2.03;;;26.40;40.00;;;;;;5029511;28;20493;-59
2021/05/12 06:32:37;;;;;;;2.95;2.10;;;26.40;40.00;;;;;;5034521;28;20060;-59
2021/05/12 06:35:05;;;;;;;6.22;2.88;;;26.40;40.00;;;;;;5033393;28;20099;-59
2021/05/12 06:37:32;;;;;;;5.03;2.40;;;26.40;40.00;;;;;;5035024;28;20107;-59
2021/05/12 06:39:59;;;;;;;5.18;2.63;;;26.40;40.00;;;;;;5029730;28;20079;-60
2021/05/12 06:42:27;;;;;;;10.05;2.53;;;26.40;40.00;;;;;;5030545;28;20045;-61
2021/05/12 06:44:54;;;;;;;6.45;2.90;;;26.50;40.00;;;;;;5029280;28;20494;-60
2021/05/12 06:47:21;;;;;;;8.93;3.22;;;26.50;40.00;;;;;;5033844;28;20180;-60
2021/05/12 06:49:48;;;;;;;19.27;3.33;;;26.50;40.00;;;;;;5029759;28;20080;-59
2021/05/12 06:52:17;;;;;;;7.88;3.22;;;26.50;40.00;;;;;;5028574;28;20413;-61
2021/05/12 06:54:44;;;;;;;6.63;2.88;;;26.50;40.00;;;;;;5031022;28;20081;-60
2021/05/12 06:57:11;;;;;;;5.97;3.22;;;26.50;40.00;;;;;;5031493;28;20448;-60
2021/05/12 06:59:39;;;;;;;3.80;2.40;;;26.50;40.00;;;;;;5030753;28;20570;-61
2021/05/12 07:02:06;;;;;;;6.05;2.95;;;26.50;39.90;;;;;;5033078;28;20104;-60
2021/05/12 07:04:34;;;;;;;7.72;3.10;;;26.50;39.90;;;;;;5031112;28;20098;-60
2021/05/12 07:07:01;;;;;;;3.55;2.60;;;26.60;39.90;;;;;;5028971;28;20073;-60
2021/05/12 07:09:28;;;;;;;5.60;2.80;;;26.60;39.90;;;;;;5029836;28;20099;-60
2021/05/12 07:11:55;;;;;;;7.78;3.00;;;26.60;39.90;;;;;;5035529;28;20091;-60
2021/05/12 07:14:23;;;;;;;4.07;2.65;;;26.60;39.90;;;;;;5032523;28;20144;-60
2021/05/12 07:16:52;;;;;;;4.95;2.65;;;26.60;39.90;;;;;;5030592;28;20049;-60
2021/05/12 07:19:20;;;;;;;;;;;26.60;39.70;;;;;;5034697;28;20490;-61
2021/05/12 07:21:48;;;;;;;4.10;2.35;;;26.70;39.80;;;;;;5029887;28;19955;-62
2021/05/12 07:24:15;;;;;;;4.47;2.42;;;26.70;39.80;;;;;;5031833;28;20071;-61
2021/05/12 07:26:42;;;;;;;10.98;3.00;;;26.70;39.80;;;;;;5028207;28;20572;-61
2021/05/12 07:29:09;;;;;;;5.20;2.95;;;26.70;39.80;;;;;;5027696;28;20042;-61
2021/05/12 07:31:38;;;;;;;7.40;2.75;;;26.70;39.70;;;;;;5033619;28;20477;-61
2021/05/12 07:34:06;;;;;;;7.35;2.60;;;26.80;39.60;;;;;;5042887;28;20049;-60
2021/05/12 07:36:34;;;;;;;7.18;2.80;;;26.80;39.50;;;;;;5029455;28;20087;-60
2021/05/12 07:39:01;;;;;;;6.13;3.22;;;26.90;39.50;;;;;;5029284;28;20099;-61
2021/05/12 07:41:28;;;;;;;6.93;2.47;;;26.90;39.50;;;;;;5030544;28;20516;-61
2021/05/12 07:43:55;;;;;;;8.00;2.15;;;27.00;39.40;;;;;;5030202;28;20053;-65
2021/05/12 07:46:26;;;;;;;3.50;2.33;;;27.00;39.40;;;;;;5032432;28;20667;-62
2021/05/12 07:48:53;;;;;;;5.35;2.03;;;26.90;39.50;;;;;;5032683;28;20045;-61
2021/05/12 07:51:22;;;;;;;4.90;2.42;;;26.90;39.50;;;;;;5028948;28;20077;-61
2021/05/12 07:53:50;;;;;;;4.93;2.25;;;26.90;39.40;;;;;;5029399;28;20140;-61
2021/05/12 07:56:17;;;;;;;4.38;2.15;;;27.00;39.30;;;;;;5028767;28;20133;-60
2021/05/12 07:58:44;;;;;;;3.47;2.47;;;27.00;39.20;;;;;;5036971;28;20102;-61
2021/05/12 08:01:19;;;;;;;4.95;2.20;;;27.00;39.20;;;;;;5029664;28;20202;-60
2021/05/12 08:03:50;;;;;;;7.15;2.40;;;27.00;39.20;;;;;;5028138;28;20049;-60
2021/05/12 08:06:17;;;;;;;6.30;2.30;;;27.00;39.10;;;;;;5024239;28;20057;-59
2021/05/12 08:08:45;;;;;;;2.05;1.48;;;27.00;39.10;;;;;;5027708;28;20623;-59
2021/05/12 08:11:12;;;;;;;5.55;2.40;;;27.00;39.10;;;;;;5030112;28;20057;-59
2021/05/12 08:13:39;;;;;;;2.08;1.40;;;26.90;39.00;;;;;;5035947;28;20198;-60
2021/05/12 08:16:08;;;;;;;2.78;1.60;;;26.90;39.00;;;;;;5032034;28;20052;-60
2021/05/12 08:18:35;;;;;;;6.05;1.80;;;26.90;39.00;;;;;;5026843;28;20044;-60
2021/05/12 08:21:03;;;;;;;4.22;1.42;;;26.90;38.90;;;;;;5029699;28;20049;-61
2021/05/12 08:23:30;;;;;;;3.00;1.67;;;26.80;38.80;;;;;;5029189;28;20054;-62
2021/05/12 08:25:58;;;;;;;9.40;2.00;;;26.80;38.70;;;;;;5030589;28;20052;-61
2021/05/12 08:28:25;;;;;;;3.65;1.20;;;26.80;38.70;;;;;;5046397;28;20068;-61
2021/05/12 08:30:55;;;;;;;4.45;1.30;;;26.80;38.70;;;;;;5033770;28;20053;-61
2021/05/12 08:33:23;;;;;;;3.88;1.17;;;26.80;38.70;;;;;;5026168;28;20041;-61
2021/05/12 08:35:51;;;;;;;3.00;1.27;;;26.90;38.80;;;;;;5025942;28;20041;-61
2021/05/12 08:38:21;;;;;;;4.53;1.60;;;26.80;38.70;;;;;;5030966;28;20133;-60
2021/05/12 08:40:48;;;;;;;7.20;1.33;;;26.90;38.70;;;;;;5026338;28;20491;-59
2021/05/12 08:43:15;;;;;;;4.60;1.70;;;26.90;38.80;;;;;;5026120;28;20493;-60
2021/05/12 08:45:44;;;;;;;4.85;1.90;;;26.80;38.70;;;;;;5028077;28;20131;-60
2021/05/12 08:48:16;;;;;;;5.10;1.53;;;26.80;38.80;;;;;;5028330;28;20049;-59
2021/05/12 08:50:45;;;;;;;2.15;1.92;;;26.80;38.80;;;;;;5029616;28;20053;-60
2021/05/12 08:53:13;;;;;;;4.28;1.60;;;26.80;38.90;;;;;;5025955;28;20053;-59
2021/05/12 08:55:40;;;;;;;1.90;1.40;;;26.70;38.90;;;;;;5035216;28;20458;-59
2021/05/12 08:58:08;;;;;;;8.52;1.77;;;26.70;38.90;;;;;;5029752;28;20119;-61
2021/05/12 09:00:36;;;;;;;6.07;1.83;;;26.70;39.00;;;;;;5030216;28;20073;-62
2021/05/12 09:03:03;;;;;;;5.15;1.20;;;26.70;39.10;;;;;;5031628;28;20048;-61
2021/05/12 09:05:31;;;;;;;1.85;1.35;;;26.70;39.30;;;;;;5036612;28;20080;-60
2021/05/12 09:07:59;;;;;;;4.30;1.48;;;26.70;39.40;;;;;;5030660;28;20045;-60
2021/05/12 09:10:27;;;;;;;3.95;1.67;;;26.70;39.50;;;;;;5029683;28;20649;-60
2021/05/12 09:13:02;;;;;;;3.78;1.77;;;26.60;39.70;;;;;;5031078;28;20136;-59
2021/05/12 09:15:30;;;;;;;2.92;2.30;;;26.50;39.90;;;;;;5030530;28;20090;-60
2021/05/12 09:18:05;;;;;;;6.30;1.80;;;26.40;40.20;;;;;;5035227;28;20076;-60
2021/05/12 09:20:42;;;;;;;2.50;1.13;;;26.30;40.60;;;;;;5029866;28;20052;-60
2021/05/12 09:23:18;;;;;;;4.28;2.17;;;26.20;41.00;;;;;;5031768;28;20044;-59
2021/05/12 09:25:57;;;;;;;4.78;1.48;;;26.00;41.30;;;;;;5029393;28;20172;-59
2021/05/12 09:28:29;;;;;;;2.45;1.45;;;25.80;41.70;;;;;;5032285;28;20096;-59
2021/05/12 09:31:06;;;;;;;5.43;1.23;;;25.60;42.00;;;;;;5033048;28;20084;-60
2021/05/12 09:33:36;;;;;;;2.63;1.73;;;25.40;42.50;;;;;;5035231;28;20049;-58
2021/05/12 09:36:04;;;;;;;3.75;1.30;;;25.10;43.00;;;;;;5034995;28;20529;-60
2021/05/12 09:38:33;;;;;;;2.30;1.45;;;24.90;43.20;;;;;;5032730;28;20922;-60
2021/05/12 09:41:14;;;;;;;2.03;1.25;;;24.80;43.70;;;;;;5033142;28;20083;-60
2021/05/12 09:43:48;;;;;;;5.85;1.02;;;24.60;43.90;;;;;;5032466;28;20099;-59
2021/05/12 09:46:31;;;;;;;2.58;1.42;;;24.60;43.90;;;;;;5032308;28;20093;-59
2021/05/12 09:49:12;;;;;;;3.47;1.60;;;24.70;43.70;;;;;;5033306;28;20049;-61
2021/05/12 09:51:42;;;;;;;3.00;1.23;;;24.90;43.40;;;;;;5038106;28;20136;-61
2021/05/12 09:54:17;;;;;;;2.63;1.15;;;25.10;43.00;;;;;;5033735;28;20149;-60
2021/05/12 09:56:56;;;;;;;2.30;1.00;;;25.20;42.70;;;;;;5036369;28;20091;-62
2021/05/12 09:59:26;;;;;;;1.42;1.10;;;25.40;42.40;;;;;;5031813;28;20042;-62
2021/05/12 10:02:02;;;;;;;5.40;1.00;;;25.60;42.40;;;;;;5031232;28;20060;-61
2021/05/12 10:04:39;;;;;;;2.97;1.27;;;25.70;42.50;;;;;;5033958;28;20091;-63
2021/05/12 10:07:22;;;;;;;2.70;1.02;;;25.80;42.20;;;;;;5034481;28;20084;-58
2021/05/12 10:09:52;;;;;;;0.98;0.70;;;25.90;42.10;;;;;;5033682;28;20045;-58
2021/05/12 10:12:22;;;;;;;1.13;0.70;;;25.90;41.90;;;;;;5033656;28;20130;-58
2021/05/12 10:14:52;;;;;;;1.02;0.88;;;26.00;41.70;;;;;;5025311;28;20139;-57
2021/05/12 10:17:20;;;;;;;3.53;0.90;;;26.00;41.60;;;;;;5030724;28;20574;-58
2021/05/12 10:19:53;;;;;;;1.55;0.55;;;26.10;41.60;;;;;;5032502;28;20410;-57
2021/05/12 10:22:21;;;;;;;1.83;0.50;;;26.10;41.60;;;;;;5033810;28;20149;-57
2021/05/12 10:24:50;;;;;;;0.98;0.50;;;26.20;41.60;;;;;;5035332;28;20130;-57
2021/05/12 10:27:28;;;;;;;3.35;1.02;;;26.20;41.40;;;;;;5032541;28;20167;-58
2021/05/12 10:29:56;;;;;;;1.88;0.60;;;26.30;41.30;;;;;;5032446;28;20098;-58
2021/05/12 10:32:32;;;;;;;1.70;0.80;;;26.30;41.10;;;;;;5032689;28;20048;-58
2021/05/12 10:35:08;;;;;;;0.82;0.82;;;26.30;40.80;;;;;;5030328;28;20049;-58
2021/05/12 10:37:46;;;;;;;4.03;1.23;;;26.40;40.70;;;;;;5031695;28;20045;-58
2021/05/12 10:40:23;;;;;;;1.95;0.40;;;26.40;40.60;;;;;;5033066;28;20082;-58
2021/05/12 10:46:01;;;;;;;0.93;0.57;;;26.50;40.40;;;;;;5029333;28;20135;-58
2021/05/12 10:48:54;;;;;;;1.50;0.80;;;26.50;40.40;;;;;;5043686;28;20049;-59
2021/05/12 10:51:33;;;;;;;4.25;0.85;;;26.50;40.50;;;;;;5031553;28;20570;-60
2021/05/12 10:54:06;;;;;;;1.27;0.50;;;26.50;40.50;;;;;;5030943;28;20091;-59
2021/05/12 10:56:39;;;;;;;1.40;0.60;;;26.50;40.50;;;;;;5031350;28;20053;-59
2021/05/12 10:59:11;;;;;;;1.00;0.70;;;26.50;40.50;;;;;;5030722;28;20095;-60
2021/05/12 11:01:54;;;;;;;2.05;0.60;;;26.50;40.40;;;;;;5031505;28;20092;-60
2021/05/12 11:04:25;;;;;;;2.28;0.68;;;26.60;40.50;;;;;;5034260;28;20106;-60
2021/05/12 11:06:56;;;;;;;0.70;0.50;;;26.60;40.40;;;;;;5028942;28;20060;-60
2021/05/12 11:09:43;;;;;;;1.85;0.63;;;26.60;40.40;;;;;;5035037;28;20045;-60
2021/05/12 11:12:15;;;;;;;1.00;0.50;;;26.70;40.40;;;;;;5029338;28;20045;-59
2021/05/12 11:14:54;;;;;;;2.25;0.70;;;26.70;40.40;;;;;;5035094;28;20475;-59
2021/05/12 11:17:22;;;;;;;3.35;0.77;;;26.70;40.20;;;;;;5024317;28;20187;-60
2021/05/12 11:19:59;;;;;;;6.00;0.75;;;26.70;40.00;;;;;;5030178;28;20064;-60
2021/05/12 11:22:45;;;;;;;2.72;0.80;;;26.80;39.90;;;;;;5026625;28;20060;-60
2021/05/12 11:25:23;;;;;;;1.85;0.50;;;26.80;39.80;;;;;;5028583;28;20099;-62
2021/05/12 11:28:32;;;;;;;3.95;0.50;;;26.90;39.50;;;;;;5028426;28;20053;-62
2021/05/12 11:31:38;;;;;;;3.45;0.60;;;26.90;39.40;;;;;;5042460;28;20045;-61
2021/05/12 11:33:47;;;;;;;3.05;1.27;;;27.00;39.30;;;;;;5031114;28;20115;-61
2021/05/12 11:36:19;;;;;;;1.00;0.60;;;27.00;38.80;;;;;;5034803;28;20053;-60
2021/05/12 11:38:47;;;;;;;0.98;0.70;;;27.00;38.50;;;;;;5037452;28;20063;-60
2021/05/12 11:41:18;;;;;;;4.43;0.95;;;26.90;38.50;;;;;;5029672;28;20049;-60
2021/05/12 11:43:59;;;;;;;2.28;0.60;;;26.90;37.90;;;;;;5038400;28;20045;-60
2021/05/12 11:46:36;;;;;;;3.17;0.75;;;26.90;38.00;;;;;;5030527;28;20084;-60
2021/05/12 11:49:07;;;;;;;2.10;1.10;;;26.90;38.10;;;;;;5029912;28;20045;-59
2021/05/12 11:51:46;;;;;;;4.63;1.17;;;26.80;37.60;;;;;;5035197;28;20099;-59
2021/05/12 11:54:22;;;;;;;2.53;0.85;;;26.50;38.00;;;;;;5037725;28;20087;-59
2021/05/12 11:57:00;;;;;;;0.80;0.70;;;26.20;39.00;;;;;;5033748;28;20073;-61
2021/05/12 11:59:37;;;;;;;3.08;1.10;;;25.80;39.60;;;;;;5044321;28;20075;-60
2021/05/12 12:02:09;;;;;;;2.05;0.65;;;25.50;40.20;;;;;;5038225;28;20445;-60
2021/05/12 12:04:40;;;;;;;1.23;1.00;;;25.30;40.30;;;;;;5038333;28;20075;-60
2021/05/12 12:07:08;;;;;;;1.35;0.70;;;25.20;40.20;;;;;;5033190;28;20041;-60
2021/05/12 12:09:35;;;;;;;2.28;0.70;;;25.30;40.20;;;;;;5037451;28;20052;-59
2021/05/12 12:12:03;;;;;;;1.77;0.88;;;25.40;40.30;;;;;;5031175;28;20498;-59
2021/05/12 12:14:35;;;;;;;1.38;0.80;;;25.50;40.30;;;;;;5032895;28;20463;-62
2021/05/12 12:17:14;;;;;;;2.78;1.20;;;25.60;40.40;;;;;;5031786;28;20091;-60
2021/05/12 12:19:41;;;;;;;2.88;1.30;;;25.70;40.30;;;;;;5030137;28;20033;-59
2021/05/12 12:22:12;;;;;;;1.75;1.25;;;25.80;39.80;;;;;;5035871;28;20103;-59
2021/05/12 12:24:40;;;;;;;2.78;0.75;;;25.90;39.80;;;;;;5030541;28;20073;-59
2021/05/12 12:27:08;;;;;;;2.70;0.85;;;25.90;39.90;;;;;;5030047;28;20132;-60
2021/05/12 12:29:35;;;;;;;2.97;1.10;;;26.00;39.90;;;;;;5032020;28;20073;-59
2021/05/12 12:32:06;;;;;;;4.03;1.13;;;26.10;39.90;;;;;;5031601;28;20782;-60
2021/05/12 12:34:36;;;;;;;1.65;1.00;;;26.20;39.90;;;;;;5037296;28;20392;-60
2021/05/12 12:37:16;;;;;;;4.93;1.20;;;26.20;39.90;;;;;;5034215;28;20084;-60
2021/05/12 12:39:56;;;;;;;1.27;0.70;;;26.20;39.80;;;;;;5028413;28;20059;-60
2021/05/12 12:42:28;;;;;;;1.13;0.93;;;26.30;39.70;;;;;;5032413;28;20132;-60
2021/05/12 12:45:01;;;;;;;2.42;0.55;;;26.30;39.60;;;;;;5032594;28;20128;-59
2021/05/12 12:47:28;;;;;;;4.72;0.98;;;26.40;39.60;;;;;;5031313;28;20045;-59
2021/05/12 12:50:05;;;;;;;2.80;0.95;;;26.40;39.50;;;;;;5028998;28;20040;-59
2021/05/12 12:52:40;;;;;;;1.25;0.75;;;26.40;39.30;;;;;;5030258;28;20076;-60
2021/05/12 12:55:17;;;;;;;1.02;0.90;;;26.50;39.40;;;;;;5029170;28;20089;-59
2021/05/12 12:57:56;;;;;;;1.98;0.60;;;26.50;39.40;;;;;;5029970;28;20494;-60
2021/05/12 13:00:28;;;;;;;1.27;0.88;;;26.40;39.30;;;;;;5030213;28;20132;-59
2021/05/12 13:03:02;;;;;;;4.13;1.08;;;26.50;39.50;;;;;;5031036;28;20060;-60
2021/05/12 13:05:39;;;;;;;2.03;0.63;;;26.40;39.50;;;;;;5027114;28;20056;-60